< < Back
Terminal Aerodrome Forecast


Current Version              Previous Versions:   1  2  3  4  5  6  7  8  9  

Terminal Aerodrome Forecast

893
FTUS42 KGSP 281735
TAFGSP
TAF
KGSP 281735Z 2818/2918 04006KT P6SM VCTS BKN050CB
     FM282300 14004KT P6SM VCTS BKN060CB
     FM290100 19003KT P6SM BKN080
     FM290600 25003KT P6SM SCT250
     FM290800 01004KT P6SM SCT250=

Latest METAR

997
SAUS70 KWBC 290200 RRI
MTRGSP
METAR KGSP 290153Z 24003KT 10SM CLR 24/19 A2999 RMK AO2 SLP142
T02390189


USA.gov is the U.S. government's official web portal to all federal, state and local government web resources and services.